Time;durP1;ratioP1;P1;durP2;ratioP2;P2;SDS_P1;SDS_P2;PMS_P1;PMS_P2;Temp;Humidity;BMP_temperature;BMP_pressure;BME280_temperature;BME280_humidity;BME280_pressure;Samples;Min_cycle;Max_cycle;Signal;HPM_P1;HPM_P2
2022/03/01 00:01:44;;;;;;;19.93;16.40;;;;;;;0.88;nan;100609.81;4985010;28;20208;-79
2022/03/01 00:04:10;;;;;;;26.30;17.20;;;;;;;0.85;nan;100605.53;4978424;28;20326;-79
2022/03/01 00:06:35;;;;;;;24.27;15.63;;;;;;;0.84;nan;100608.16;4985072;28;20350;-79
2022/03/01 00:09:01;;;;;;;25.40;17.40;;;;;;;0.81;nan;100605.56;4980823;28;20656;-79
2022/03/01 00:11:26;;;;;;;23.17;15.73;;;;;;;0.84;nan;100602.97;4983623;28;20220;-80
2022/03/01 00:13:52;;;;;;;20.77;14.33;;;;;;;0.84;nan;100600.38;4980906;28;21976;-79
2022/03/01 00:16:19;;;;;;;25.03;16.43;;;;;;;0.80;nan;100607.28;4982533;28;20215;-79
2022/03/01 00:18:45;;;;;;;18.67;13.70;;;;;;;0.80;nan;100616.78;4985622;28;20499;-79
2022/03/01 00:21:11;;;;;;;23.87;15.53;;;;;;;0.76;nan;100607.34;4981574;28;20207;-80
2022/03/01 00:23:36;;;;;;;22.00;13.17;;;;;;;0.69;nan;100613.44;4984960;28;20573;-79
2022/03/01 00:26:02;;;;;;;17.57;13.63;;;;;;;0.62;nan;100608.31;4981290;28;20296;-79
2022/03/01 00:28:27;;;;;;;20.17;14.20;;;;;;;0.62;nan;100610.88;4976447;28;20235;-79
2022/03/01 00:30:54;;;;;;;18.57;11.83;;;;;;;0.64;nan;100618.63;4985864;28;20258;-79
2022/03/01 00:33:19;;;;;;;17.55;13.05;;;;;;;0.66;nan;100619.47;4982001;28;20319;-79
2022/03/01 00:35:45;;;;;;;19.63;13.10;;;;;;;0.69;nan;100619.44;4972620;28;20477;-79
2022/03/01 00:38:10;;;;;;;17.33;10.53;;;;;;;0.70;nan;100621.16;4973732;28;21144;-79
2022/03/01 00:40:35;;;;;;;22.27;12.53;;;;;;;0.72;nan;100619.41;4977724;28;20247;-79
2022/03/01 00:43:01;;;;;;;18.70;13.00;;;;;;;0.73;nan;100620.28;4987228;28;20217;-79
2022/03/01 00:45:26;;;;;;;18.03;12.90;;;;;;;0.71;nan;100624.63;4977716;28;20207;-80
2022/03/01 00:47:52;;;;;;;17.00;12.53;;;;;;;0.72;nan;100618.56;4979844;28;20214;-79
2022/03/01 00:50:17;;;;;;;18.57;12.47;;;;;;;0.68;nan;100617.75;4983756;28;20261;-80
2022/03/01 00:52:42;;;;;;;20.70;13.00;;;;;;;0.66;nan;100620.31;4985053;28;20228;-80
2022/03/01 00:55:08;;;;;;;15.50;11.80;;;;;;;0.65;nan;100607.44;4982606;28;20203;-80
2022/03/01 00:57:34;;;;;;;16.37;12.00;;;;;;;0.61;nan;100616.91;4985392;28;20701;-80
2022/03/01 00:59:59;;;;;;;15.93;12.60;;;;;;;0.55;nan;100609.22;4985111;28;20314;-79
2022/03/01 01:02:24;;;;;;;20.07;12.37;;;;;;;0.54;nan;100610.09;4985960;28;20291;-79
2022/03/01 01:04:50;;;;;;;20.83;11.77;;;;;;;0.54;nan;100604.91;4981560;28;20793;-79
2022/03/01 01:07:15;;;;;;;16.13;12.50;;;;;;;0.56;nan;100612.63;4985550;28;20611;-79
2022/03/01 01:09:41;;;;;;;21.10;12.93;;;;;;;0.54;nan;100604.91;4983038;28;20239;-80
2022/03/01 01:12:07;;;;;;;17.33;12.10;;;;;;;0.52;nan;100606.66;4986485;28;20719;-80
2022/03/01 01:14:32;;;;;;;16.58;12.45;;;;;;;0.51;nan;100609.22;4984037;28;20215;-79
2022/03/01 01:16:58;;;;;;;14.50;12.20;;;;;;;0.45;nan;100612.72;4987008;28;20211;-79
2022/03/01 01:19:23;;;;;;;18.30;13.80;;;;;;;0.33;nan;100613.66;4984373;28;20237;-79
2022/03/01 01:24:32;;;;;;;15.50;13.05;;;;;;;0.13;nan;100621.47;4980849;28;20247;-79
2022/03/01 01:26:58;;;;;;;22.30;11.87;;;;;;;0.03;nan;100612.09;4979381;28;20312;-79
2022/03/01 01:29:23;;;;;;;18.97;11.43;;;;;;;0.01;nan;100620.72;4982143;28;20226;-80
2022/03/01 01:31:48;;;;;;;14.87;12.60;;;;;;;-0.03;nan;100618.13;4986142;28;20239;-79
2022/03/01 01:34:14;;;;;;;14.00;12.20;;;;;;;-0.04;nan;100626.72;4981809;28;20255;-79
2022/03/01 01:36:39;;;;;;;18.70;14.00;;;;;;;-0.04;nan;100631.03;4981806;28;20211;-80
2022/03/01 01:39:05;;;;;;;18.97;11.87;;;;;;;-0.05;nan;100625.03;4981846;28;20313;-80
2022/03/01 01:41:30;;;;;;;26.10;11.37;;;;;;;-0.09;nan;100627.63;4982316;28;20449;-79
2022/03/01 01:43:56;;;;;;;15.93;10.90;;;;;;;-0.10;nan;100636.25;4980075;28;20246;-79
2022/03/01 01:46:21;;;;;;;13.73;10.87;;;;;;;-0.09;nan;100643.97;4990575;28;20499;-79
2022/03/01 01:48:47;;;;;;;13.60;11.47;;;;;;;-0.11;nan;100640.56;4992009;28;20698;-79
2022/03/01 01:51:12;;;;;;;20.40;15.07;;;;;;;-0.12;nan;100643.13;4995467;28;20236;-80
2022/03/01 01:53:38;;;;;;;19.57;13.20;;;;;;;-0.12;nan;100640.53;4976512;28;20330;-80
2022/03/01 01:56:03;;;;;;;17.93;12.07;;;;;;;-0.15;nan;100644.00;4990048;28;20545;-79
2022/03/01 01:58:29;;;;;;;13.80;11.60;;;;;;;-0.19;nan;100641.41;4990573;28;20720;-79
2022/03/01 02:00:54;;;;;;;13.20;10.67;;;;;;;-0.20;nan;100645.72;4996652;28;20197;-79
2022/03/01 02:03:20;;;;;;;16.23;11.87;;;;;;;-0.23;nan;100646.59;4994989;28;20199;-79
2022/03/01 02:05:45;;;;;;;24.57;13.17;;;;;;;-0.27;nan;100639.75;4990642;28;20726;-78
2022/03/01 02:08:11;;;;;;;19.87;11.60;;;;;;;-0.31;nan;100642.31;4990125;28;20231;-80
2022/03/01 02:10:36;;;;;;;19.20;13.20;;;;;;;-0.33;nan;100644.91;4992708;28;20219;-80
2022/03/01 02:13:02;;;;;;;18.73;13.20;;;;;;;-0.34;nan;100640.59;4995856;28;20273;-79
2022/03/01 02:15:27;;;;;;;15.30;12.10;;;;;;;-0.33;nan;100639.72;4977048;28;20633;-79
2022/03/01 02:17:53;;;;;;;18.17;12.43;;;;;;;-0.30;nan;100639.75;4993415;28;20218;-80
2022/03/01 02:20:21;;;;;;;13.90;12.40;;;;;;;-0.27;nan;100644.91;4993779;28;20510;-79
2022/03/01 02:22:51;;;;;;;16.00;13.18;;;;;;;-0.25;nan;100653.47;4997859;28;20202;-79
2022/03/01 02:25:16;;;;;;;23.95;12.40;;;;;;;-0.24;nan;100642.31;4992213;28;20205;-80
2022/03/01 02:27:42;;;;;;;20.60;12.43;;;;;;;-0.26;nan;100636.28;4995173;28;20410;-79
2022/03/01 02:30:09;;;;;;;18.90;12.87;;;;;;;-0.31;nan;100645.75;4995427;28;20476;-79
2022/03/01 02:32:36;;;;;;;19.20;13.02;;;;;;;-0.34;nan;100642.34;4995977;28;20215;-79
2022/03/01 02:35:03;;;;;;;15.07;12.23;;;;;;;-0.40;nan;100642.34;4994308;28;20766;-80
2022/03/01 02:37:29;;;;;;;19.45;13.00;;;;;;;-0.54;nan;100638.09;4997288;28;20624;-80
2022/03/01 02:39:55;;;;;;;20.92;12.60;;;;;;;-0.68;nan;100632.06;4995544;28;20226;-81
2022/03/01 02:42:21;;;;;;;15.83;12.97;;;;;;;-0.77;nan;100642.41;4989704;28;20196;-80
2022/03/01 02:44:48;;;;;;;21.05;14.13;;;;;;;-0.81;nan;100641.56;4994554;28;20849;-79
2022/03/01 02:47:15;;;;;;;24.73;13.25;;;;;;;-0.84;nan;100644.09;4995199;28;20338;-80
2022/03/01 02:49:41;;;;;;;18.38;13.10;;;;;;;-0.86;nan;100640.69;4992990;28;20219;-80
2022/03/01 02:52:07;;;;;;;18.75;13.60;;;;;;;-0.87;nan;100645.84;4992839;28;20234;-78
2022/03/01 02:54:32;;;;;;;20.73;11.80;;;;;;;-0.95;nan;100648.41;4994397;28;20203;-79
2022/03/01 02:57:01;;;;;;;13.70;11.37;;;;;;;-1.03;nan;100650.13;4993818;28;20207;-79
2022/03/01 02:59:30;;;;;;;19.67;12.60;;;;;;;-1.12;nan;100649.28;4992491;28;20221;-79
2022/03/01 03:01:57;;;;;;;24.40;15.82;;;;;;;-1.12;nan;100643.25;4973042;28;20496;-79
2022/03/01 03:04:23;;;;;;;17.45;12.95;;;;;;;-1.09;nan;100640.69;4991128;28;20206;-78
2022/03/01 03:06:49;;;;;;;20.65;14.00;;;;;;;-1.07;nan;100636.38;4994207;28;20203;-79
2022/03/01 03:09:15;;;;;;;16.30;12.20;;;;;;;-1.03;nan;100635.50;4994257;28;20235;-79
2022/03/01 03:11:41;;;;;;;13.45;11.57;;;;;;;-1.02;nan;100644.13;4994464;28;20497;-79
2022/03/01 03:14:06;;;;;;;15.57;12.17;;;;;;;-1.07;nan;100635.53;4994898;28;20214;-79
2022/03/01 03:16:32;;;;;;;19.43;13.73;;;;;;;-1.13;nan;100639.81;4993578;28;20226;-79
2022/03/01 03:18:57;;;;;;;17.70;12.97;;;;;;;-1.15;nan;100638.09;4993127;28;20310;-79
2022/03/01 03:21:23;;;;;;;23.37;12.20;;;;;;;-1.12;nan;100638.97;4992144;28;20500;-79
2022/03/01 03:23:48;;;;;;;19.17;13.63;;;;;;;-1.07;nan;100638.13;4988730;28;20756;-79
2022/03/01 03:26:14;;;;;;;17.77;11.53;;;;;;;-1.05;nan;100633.78;4990850;28;20203;-79
2022/03/01 03:28:40;;;;;;;20.45;13.48;;;;;;;-1.11;nan;100642.38;4990771;28;20318;-79
2022/03/01 03:31:05;;;;;;;17.00;12.60;;;;;;;-1.19;nan;100639.84;4988096;28;20468;-79
2022/03/01 03:33:31;;;;;;;17.47;11.67;;;;;;;-1.18;nan;100640.69;4987996;28;20238;-79
2022/03/01 03:35:56;;;;;;;21.37;14.00;;;;;;;-1.15;nan;100633.81;4989504;28;20234;-79
2022/03/01 03:38:23;;;;;;;19.30;11.53;;;;;;;-1.12;nan;100632.94;4987383;28;20270;-79
2022/03/01 03:40:49;;;;;;;15.82;11.95;;;;;;;-1.09;nan;100637.25;4989851;28;20493;-79
2022/03/01 03:43:14;;;;;;;14.97;13.33;;;;;;;-1.08;nan;100631.22;4990568;28;20553;-79
2022/03/01 03:45:40;;;;;;;18.23;13.37;;;;;;;-1.10;nan;100627.81;4990544;28;20207;-79
2022/03/01 03:48:05;;;;;;;19.53;12.43;;;;;;;-1.18;nan;100620.91;4990798;28;20273;-79
2022/03/01 03:50:31;;;;;;;19.50;13.30;;;;;;;-1.19;nan;100621.78;4990847;28;20207;-79
2022/03/01 03:52:56;;;;;;;17.87;10.40;;;;;;;-1.19;nan;100614.06;4991958;28;20261;-79
2022/03/01 03:55:22;;;;;;;18.03;12.30;;;;;;;-1.19;nan;100613.16;4991046;28;20213;-79
2022/03/01 03:57:47;;;;;;;17.63;12.40;;;;;;;-1.25;nan;100618.31;4990319;28;20210;-79
2022/03/01 04:00:16;;;;;;;13.83;12.23;;;;;;;-1.31;nan;100614.03;4987510;28;20220;-79
2022/03/01 04:02:46;;;;;;;22.33;15.20;;;;;;;-1.25;nan;100613.16;4989080;28;20517;-79
2022/03/01 04:05:15;;;;;;;22.27;14.98;;;;;;;-1.24;nan;100609.72;4990749;28;20464;-79
2022/03/01 04:07:42;;;;;;;18.98;13.90;;;;;;;-1.23;nan;100611.47;4989874;28;20218;-80
2022/03/01 04:10:10;;;;;;;17.67;11.60;;;;;;;-1.25;nan;100606.28;4990500;28;20227;-79
2022/03/01 04:12:35;;;;;;;16.50;12.15;;;;;;;-1.33;nan;100615.75;4991105;28;20207;-79
2022/03/01 04:15:01;;;;;;;15.07;11.50;;;;;;;-1.44;nan;100614.88;4990621;28;20207;-79
2022/03/01 04:17:26;;;;;;;16.20;11.10;;;;;;;-1.46;nan;100614.00;4993033;28;20218;-79
2022/03/01 04:19:52;;;;;;;20.23;12.60;;;;;;;-1.50;nan;100617.44;4984225;28;20219;-79
2022/03/01 04:22:17;;;;;;;13.30;11.60;;;;;;;-1.52;nan;100626.88;4987117;28;20608;-79
2022/03/01 04:24:43;;;;;;;19.37;13.37;;;;;;;-1.52;nan;100630.31;4994796;28;20416;-79
2022/03/01 04:27:08;;;;;;;16.97;12.60;;;;;;;-1.59;nan;100629.47;4992762;28;20671;-79
2022/03/01 04:29:34;;;;;;;18.80;12.03;;;;;;;-1.66;nan;100630.28;4993880;28;20854;-79
2022/03/01 04:32:00;;;;;;;23.33;14.80;;;;;;;-1.67;nan;100630.31;4985101;28;20867;-79
2022/03/01 04:34:25;;;;;;;16.05;12.25;;;;;;;-1.68;nan;100625.97;4986843;28;20957;-79
2022/03/01 04:36:51;;;;;;;16.97;12.03;;;;;;;-1.70;nan;100626.00;4987558;28;20203;-79
2022/03/01 04:39:16;;;;;;;16.50;12.70;;;;;;;-1.71;nan;100621.69;5003920;23;20615;-82
2022/03/01 04:41:41;;;;;;;13.90;10.97;;;;;;;-1.70;nan;100618.28;4955338;28;20653;-79
2022/03/01 04:44:07;;;;;;;19.83;11.50;;;;;;;-1.73;nan;100618.22;4991778;28;20257;-81
2022/03/01 04:46:33;;;;;;;13.70;10.60;;;;;;;-1.72;nan;100621.69;4992088;28;20750;-81
2022/03/01 04:48:59;;;;;;;23.23;13.50;;;;;;;-1.76;nan;100615.66;4994084;28;20494;-75
2022/03/01 04:51:24;;;;;;;15.53;11.90;;;;;;;-1.78;nan;100625.13;4994069;28;20257;-77
2022/03/01 04:53:50;;;;;;;20.27;11.70;;;;;;;-1.80;nan;100607.06;4993267;28;20286;-78
2022/03/01 04:56:16;;;;;;;15.63;12.00;;;;;;;-1.84;nan;100609.63;4995241;28;20210;-77
2022/03/01 04:58:42;;;;;;;19.13;13.35;;;;;;;-1.92;nan;100612.16;4994521;28;20489;-78
2022/03/01 05:01:07;;;;;;;12.60;10.90;;;;;;;-1.96;nan;100613.03;4994169;28;20203;-77
2022/03/01 05:03:33;;;;;;;17.53;11.20;;;;;;;-2.02;nan;100616.44;4993474;28;20788;-77
2022/03/01 05:05:58;;;;;;;22.30;11.33;;;;;;;-2.04;nan;100620.72;5011238;28;20203;-75
2022/03/01 05:08:26;;;;;;;18.83;11.33;;;;;;;-2.08;nan;100629.31;5017423;28;20263;-74
2022/03/01 05:10:51;;;;;;;17.42;12.43;;;;;;;-2.11;nan;100626.69;5017444;28;20275;-75
2022/03/01 05:13:17;;;;;;;15.27;11.30;;;;;;;-2.15;nan;100621.53;5018239;28;20226;-74
2022/03/01 05:15:42;;;;;;;23.40;12.90;;;;;;;-2.18;nan;100624.97;5000973;28;20670;-77
2022/03/01 05:18:07;;;;;;;18.83;11.40;;;;;;;-2.17;nan;100624.09;4994586;28;20204;-77
2022/03/01 05:20:33;;;;;;;17.93;12.70;;;;;;;-2.14;nan;100625.81;4997294;28;20635;-77
2022/03/01 05:22:58;;;;;;;17.27;11.57;;;;;;;-2.11;nan;100634.41;4996053;28;20214;-75
2022/03/01 05:25:24;;;;;;;22.33;12.40;;;;;;;-2.08;nan;100637.03;4991226;28;20203;-75
2022/03/01 05:27:52;;;;;;;14.60;11.05;;;;;;;-2.05;nan;100633.59;4995549;28;20265;-77
2022/03/01 05:30:19;;;;;;;15.15;11.43;;;;;;;-2.10;nan;100631.00;4991402;28;20226;-77
2022/03/01 05:32:46;;;;;;;20.20;16.05;;;;;;;-2.11;nan;100633.56;4990048;28;20490;-75
2022/03/01 05:35:14;;;;;;;16.45;12.05;;;;;;;-2.14;nan;100626.69;4992786;28;20260;-75
2022/03/01 05:37:43;;;;;;;19.88;13.27;;;;;;;-2.15;nan;100632.69;4995668;28;20223;-77
2022/03/01 05:40:15;;;;;;;18.92;11.75;;;;;;;-2.15;nan;100645.56;4981691;28;20297;-76
2022/03/01 05:42:41;;;;;;;16.80;11.57;;;;;;;-2.20;nan;100651.53;4990986;28;20195;-76
2022/03/01 05:45:07;;;;;;;19.48;12.32;;;;;;;-2.33;nan;100638.59;4989084;28;20623;-77
2022/03/01 05:47:32;;;;;;;16.95;10.85;;;;;;;-2.47;nan;100646.22;4993802;28;20258;-76
2022/03/01 05:49:58;;;;;;;14.97;10.47;;;;;;;-2.52;nan;100645.34;4993588;28;20268;-76
2022/03/01 05:52:24;;;;;;;17.93;11.77;;;;;;;-2.55;nan;100649.63;4992086;28;20229;-77
2022/03/01 05:54:49;;;;;;;15.13;11.67;;;;;;;-2.59;nan;100647.84;4985628;28;20454;-76
2022/03/01 05:57:15;;;;;;;19.00;11.83;;;;;;;-2.55;nan;100647.03;4985336;28;20531;-77
2022/03/01 05:59:41;;;;;;;15.50;13.00;;;;;;;-2.51;nan;100652.22;4984931;28;20454;-76
2022/03/01 06:02:06;;;;;;;19.13;14.17;;;;;;;-2.43;nan;100652.28;4983986;28;20580;-76
2022/03/01 06:04:32;;;;;;;20.40;13.80;;;;;;;-2.38;nan;100652.28;4981702;28;20461;-77
2022/03/01 06:06:58;;;;;;;24.67;13.40;;;;;;;-2.38;nan;100654.84;4985103;28;20482;-77
2022/03/01 06:09:45;;;;;;;20.80;12.80;;;;;;;-2.35;nan;100650.63;4987776;28;20485;-77
2022/03/01 06:12:20;;;;;;;18.83;13.05;;;;;;;-2.30;nan;100655.75;4970268;28;20241;-79
2022/03/01 06:14:45;;;;;;;21.90;14.53;;;;;;;-2.27;nan;100650.63;4992085;28;20596;-79
2022/03/01 06:17:11;;;;;;;18.00;13.17;;;;;;;-2.24;nan;100653.25;4992240;28;20214;-79
2022/03/01 06:19:37;;;;;;;17.27;12.45;;;;;;;-2.19;nan;100655.81;4991153;28;20250;-79
2022/03/01 06:22:04;;;;;;;18.10;12.40;;;;;;;-2.17;nan;100654.13;4987477;28;20736;-79
2022/03/01 06:24:30;;;;;;;16.77;12.00;;;;;;;-2.30;nan;100664.34;4990654;28;20309;-78
2022/03/01 06:26:55;;;;;;;12.97;11.00;;;;;;;-2.42;nan;100664.28;4975601;28;20715;-78
2022/03/01 06:29:21;;;;;;;17.30;11.13;;;;;;;-2.49;nan;100671.09;4971630;28;20219;-76
2022/03/01 06:31:46;;;;;;;17.97;12.60;;;;;;;-2.54;nan;100667.66;4992108;28;20678;-76
2022/03/01 06:34:12;;;;;;;15.80;12.70;;;;;;;-2.61;nan;100671.00;4991334;28;20524;-76
2022/03/01 06:36:37;;;;;;;17.80;10.80;;;;;;;-2.67;nan;100676.13;4990787;28;20567;-76
2022/03/01 06:39:03;;;;;;;14.77;10.60;;;;;;;-2.71;nan;100671.78;4990781;28;20279;-75
2022/03/01 06:41:28;;;;;;;14.47;10.47;;;;;;;-2.72;nan;100673.50;4969582;28;20236;-77
2022/03/01 06:43:54;;;;;;;24.00;12.43;;;;;;;-2.72;nan;100681.22;4988835;28;20215;-77
2022/03/01 06:46:20;;;;;;;13.57;10.53;;;;;;;-2.72;nan;100676.09;4994761;28;20743;-76
2022/03/01 06:48:46;;;;;;;15.65;12.07;;;;;;;-2.68;nan;100674.38;4991184;28;20233;-77
2022/03/01 06:51:12;;;;;;;21.10;14.40;;;;;;;-2.61;nan;100668.44;4991098;28;20313;-77
2022/03/01 06:53:37;;;;;;;14.87;10.83;;;;;;;-2.54;nan;100670.22;4990634;28;20499;-77
2022/03/01 06:56:03;;;;;;;16.57;12.20;;;;;;;-2.46;nan;100670.25;4975486;28;20210;-76
2022/03/01 06:58:29;;;;;;;17.52;11.77;;;;;;;-2.37;nan;100678.03;4992047;28;20318;-76
2022/03/01 07:00:56;;;;;;;24.38;17.95;;;;;;;-2.27;nan;100666.06;4994562;28;20596;-76
2022/03/01 07:03:22;;;;;;;26.45;15.93;;;;;;;-2.23;nan;100675.53;4991259;28;20222;-77
2022/03/01 07:05:47;;;;;;;19.02;12.98;;;;;;;-2.18;nan;100676.44;4993889;28;20214;-77
2022/03/01 07:08:13;;;;;;;22.30;15.70;;;;;;;-2.10;nan;100682.47;4990402;28;20250;-78
2022/03/01 07:10:40;;;;;;;19.10;14.38;;;;;;;-2.00;nan;100678.22;4992248;28;20210;-77
2022/03/01 07:13:07;;;;;;;20.48;13.15;;;;;;;-1.96;nan;100679.13;4993963;28;20211;-78
2022/03/01 07:15:33;;;;;;;22.85;14.48;;;;;;;-1.93;nan;100684.28;4992112;28;20198;-76
2022/03/01 07:18:00;;;;;;;19.27;12.73;;;;;;;-1.87;nan;100680.00;4994205;28;20266;-78
2022/03/01 07:20:25;;;;;;;21.85;14.00;;;;;;;-1.77;nan;100677.47;4993263;28;20538;-78
2022/03/01 07:22:51;;;;;;;15.90;12.03;;;;;;;-1.68;nan;100670.63;4988734;28;20195;-78
2022/03/01 07:25:16;;;;;;;23.23;12.90;;;;;;;-1.60;nan;100674.09;4991469;28;20233;-78
2022/03/01 07:27:53;;;;;;;16.73;12.03;;;;;;;-1.50;nan;100668.97;4993955;28;20728;-77
2022/03/01 07:30:19;;;;;;;16.25;11.65;;;;;;;-1.43;nan;100666.44;4993653;28;20739;-77
2022/03/01 07:32:45;;;;;;;21.23;15.25;;;;;;;-1.33;nan;100673.28;4988804;28;20492;-77
2022/03/01 07:35:11;;;;;;;18.27;13.60;;;;;;;-1.30;nan;100666.44;4990225;28;20551;-78
2022/03/01 07:37:37;;;;;;;19.47;13.23;;;;;;;-1.31;nan;100675.88;4991467;28;20620;-77
2022/03/01 07:40:07;;;;;;;14.00;12.02;;;;;;;-1.30;nan;100676.75;4994503;28;20254;-77
2022/03/01 07:42:32;;;;;;;20.20;12.50;;;;;;;-1.34;nan;100681.03;4991766;28;20247;-77
2022/03/01 07:44:58;;;;;;;18.77;14.40;;;;;;;-1.34;nan;100678.47;4995179;28;20223;-77
2022/03/01 07:47:23;;;;;;;18.50;12.27;;;;;;;-1.34;nan;100683.63;4995487;28;20214;-78
2022/03/01 07:49:49;;;;;;;21.80;13.30;;;;;;;-1.31;nan;100681.03;4994436;28;20246;-78
2022/03/01 07:52:15;;;;;;;16.37;12.13;;;;;;;-1.22;nan;100678.47;4999984;28;20269;-78
2022/03/01 07:54:41;;;;;;;13.57;10.23;;;;;;;-1.12;nan;100674.19;4998320;28;20453;-77
2022/03/01 07:57:06;;;;;;;13.20;9.90;;;;;;;-1.02;nan;100669.94;4997207;28;20223;-78
2022/03/01 07:59:32;;;;;;;11.87;10.73;;;;;;;-0.94;nan;100671.63;5000685;28;20203;-78
2022/03/01 08:01:57;;;;;;;13.55;10.82;;;;;;;-0.83;nan;100669.06;5002083;28;20472;-78
2022/03/01 08:04:23;;;;;;;15.97;10.63;;;;;;;-0.74;nan;100657.88;5002456;28;20209;-78
2022/03/01 08:06:49;;;;;;;16.77;10.30;;;;;;;-0.62;nan;100657.00;5004616;28;20230;-78
2022/03/01 08:09:15;;;;;;;13.32;9.73;;;;;;;-0.53;nan;100652.69;5011288;28;20315;-77
2022/03/01 08:11:40;;;;;;;15.35;9.88;;;;;;;-0.44;nan;100659.56;5000538;28;20227;-77
2022/03/01 08:14:06;;;;;;;18.27;10.50;;;;;;;-0.35;nan;100662.13;4981897;28;20195;-78
2022/03/01 08:16:32;;;;;;;14.90;10.00;;;;;;;-0.26;nan;100666.41;4996312;28;20195;-78
2022/03/01 08:18:57;;;;;;;16.40;10.57;;;;;;;-0.15;nan;100663.81;4993023;28;20227;-78
2022/03/01 08:21:23;;;;;;;13.77;8.83;;;;;;;-0.06;nan;100659.44;4991611;28;20207;-78
2022/03/01 08:23:48;;;;;;;14.53;9.63;;;;;;;0.04;nan;100655.13;4994806;28;20709;-77
2022/03/01 08:26:14;;;;;;;12.93;8.07;;;;;;;0.13;nan;100655.06;4990411;28;20659;-76
2022/03/01 08:28:54;;;;;;;12.07;8.27;;;;;;;0.30;nan;100652.44;4973393;28;20234;-77
2022/03/01 08:31:22;;;;;;;11.95;7.90;;;;;;;0.69;nan;100637.56;4991659;28;20959;-78
2022/03/01 08:33:58;;;;;;;9.40;7.25;;;;;;;1.71;nan;100645.31;4988072;28;20257;-78
2022/03/01 08:36:24;;;;;;;9.32;6.50;;;;;;;3.06;nan;100638.28;4994396;28;20200;-79
2022/03/01 08:38:50;;;;;;;12.33;6.60;;;;;;;4.34;nan;100628.94;4983372;28;20246;-78
2022/03/01 08:41:16;;;;;;;7.83;5.43;;;;;;;5.43;nan;100624.59;4990190;28;20473;-78
2022/03/01 08:43:41;;;;;;;11.40;9.03;;;;;;;6.16;nan;100621.75;4991793;28;20199;-78
2022/03/01 08:46:11;;;;;;;8.60;6.20;;;;;;;6.93;nan;100618.53;4984468;28;20817;-77
2022/03/01 08:48:36;;;;;;;9.55;6.68;;;;;;;7.71;nan;100623.72;4987969;28;20570;-77
2022/03/01 08:51:02;;;;;;;12.03;6.80;;;;;;;8.44;nan;100620.16;4991581;28;20700;-77
2022/03/01 08:53:27;;;;;;;9.53;7.13;;;;;;;8.94;nan;100609.47;4991460;28;20205;-77
2022/03/01 08:55:53;;;;;;;10.70;6.50;;;;;;;9.31;nan;100623.63;4989399;28;20287;-77
2022/03/01 08:58:19;;;;;;;8.07;5.97;;;;;;;9.79;nan;100621.59;4972764;28;20215;-82
2022/03/01 09:00:45;;;;;;;8.50;7.70;;;;;;;10.27;nan;100615.94;4992163;28;20700;-81
2022/03/01 09:03:11;;;;;;;8.93;7.05;;;;;;;10.68;nan;100607.88;4991812;28;20471;-77
2022/03/01 09:05:37;;;;;;;9.07;7.47;;;;;;;11.18;nan;100607.19;4992904;28;20562;-78
2022/03/01 09:08:03;;;;;;;8.83;5.70;;;;;;;11.46;nan;100601.38;4991244;28;20214;-77
2022/03/01 09:10:29;;;;;;;10.55;8.27;;;;;;;11.48;nan;100606.56;4992707;28;20234;-81
2022/03/01 09:12:56;;;;;;;9.07;6.67;;;;;;;11.57;nan;100605.22;4991513;28;20228;-77
2022/03/01 09:15:22;;;;;;;8.73;7.05;;;;;;;11.91;nan;100599.09;4987938;28;20219;-80
2022/03/01 09:17:49;;;;;;;9.98;7.53;;;;;;;12.26;nan;100596.31;4990432;28;20208;-78
2022/03/01 09:20:14;;;;;;;11.07;7.55;;;;;;;12.33;nan;100595.88;4992370;28;20313;-76
2022/03/01 09:22:40;;;;;;;8.53;6.53;;;;;;;12.43;nan;100590.13;4989591;28;20264;-78
2022/03/01 09:25:06;;;;;;;9.10;6.13;;;;;;;12.53;nan;100586.88;4989499;28;20572;-77
2022/03/01 09:27:32;;;;;;;10.20;6.30;;;;;;;12.56;nan;100588.50;4988212;28;20680;-81
2022/03/01 09:29:58;;;;;;;8.43;6.50;;;;;;;12.41;nan;100584.94;4992750;28;20298;-77
2022/03/01 09:32:25;;;;;;;10.33;7.47;;;;;;;12.24;nan;100585.03;4989725;28;20532;-78
2022/03/01 09:34:50;;;;;;;9.10;7.82;;;;;;;11.74;nan;100592.88;4992406;28;20469;-81
2022/03/01 09:37:16;;;;;;;9.17;6.20;;;;;;;11.56;nan;100590.34;4991242;28;20261;-77
2022/03/01 09:39:42;;;;;;;8.03;6.33;;;;;;;11.26;nan;100597.13;4996425;28;20740;-78
2022/03/01 09:42:08;;;;;;;6.93;5.23;;;;;;;11.00;nan;100598.44;4991679;28;20211;-77
2022/03/01 09:44:33;;;;;;;8.18;6.03;;;;;;;10.75;nan;100604.03;4992320;28;20208;-81
2022/03/01 09:46:59;;;;;;;11.17;6.60;;;;;;;10.60;nan;100594.25;4993537;28;20214;-81
2022/03/01 09:49:24;;;;;;;10.97;7.27;;;;;;;10.13;nan;100613.91;4992851;28;20272;-77
2022/03/01 09:51:50;;;;;;;8.07;7.07;;;;;;;9.72;nan;100619.25;4974313;28;20227;-82
2022/03/01 09:54:16;;;;;;;9.30;7.10;;;;;;;9.47;nan;100614.19;4995670;28;20274;-77
2022/03/01 09:56:42;;;;;;;12.27;9.00;;;;;;;9.26;nan;100620.34;4987740;28;20488;-79
2022/03/01 09:59:08;;;;;;;8.60;7.30;;;;;;;8.95;nan;100619.00;4988850;28;20211;-81
2022/03/01 10:01:33;;;;;;;11.37;7.63;;;;;;;8.77;nan;100625.84;5007029;28;20534;-82
2022/03/01 10:04:10;;;;;;;10.00;7.50;;;;;;;8.52;nan;100631.19;4977999;28;20226;-82
2022/03/01 10:06:44;;;;;;;7.75;6.78;;;;;;;8.44;nan;100641.09;4995430;28;20210;-82
2022/03/01 10:09:18;;;;;;;11.52;7.25;;;;;;;8.33;nan;100638.03;4973349;28;20238;-77
2022/03/01 10:11:44;;;;;;;7.72;6.45;;;;;;;8.15;nan;100635.16;4995679;28;20241;-76
2022/03/01 10:14:10;;;;;;;11.88;8.07;;;;;;;8.06;nan;100630.28;4996403;28;20265;-79
2022/03/01 10:16:38;;;;;;;9.13;6.25;;;;;;;8.02;nan;100626.09;5001856;28;20249;-80
2022/03/01 10:19:19;;;;;;;11.05;7.78;;;;;;;8.04;nan;100632.09;4999581;28;20266;-81
2022/03/01 10:21:56;;;;;;;9.35;7.68;;;;;;;7.87;nan;100632.72;5002062;28;20191;-80
2022/03/01 10:24:21;;;;;;;11.05;7.32;;;;;;;7.65;nan;100626.56;4966528;28;20195;-76
2022/03/01 10:26:49;;;;;;;8.67;7.47;;;;;;;7.52;nan;100629.59;4990465;28;20290;-78
2022/03/01 10:29:15;;;;;;;8.38;7.28;;;;;;;7.39;nan;100628.28;4988916;28;20195;-78
2022/03/01 10:31:42;;;;;;;11.88;9.27;;;;;;;7.37;nan;100631.88;4985436;28;20222;-78
2022/03/01 10:34:10;;;;;;;15.68;8.98;;;;;;;7.36;nan;100615.34;5000982;28;20218;-81
2022/03/01 10:36:47;;;;;;;9.18;8.05;;;;;;;7.40;nan;100616.94;4996272;28;20234;-80
2022/03/01 10:39:14;;;;;;;10.00;7.85;;;;;;;7.25;nan;100618.31;4995276;28;20331;-78
2022/03/01 10:41:42;;;;;;;7.95;6.43;;;;;;;7.18;nan;100619.41;4994297;28;20496;-77
2022/03/01 10:44:17;;;;;;;12.48;9.05;;;;;;;7.12;nan;100618.78;4990606;28;20211;-82
2022/03/01 10:46:46;;;;;;;8.73;7.82;;;;;;;7.03;nan;100618.19;4992766;28;20194;-76
2022/03/01 10:49:20;;;;;;;8.88;7.95;;;;;;;7.15;nan;100611.69;4989422;28;20222;-77
2022/03/01 10:52:05;;;;;;;12.32;9.05;;;;;;;7.25;nan;100604.41;4970133;28;20268;-80
2022/03/01 10:54:30;;;;;;;10.38;8.20;;;;;;;7.26;nan;100612.19;4990609;28;20530;-79
2022/03/01 10:56:57;;;;;;;12.73;9.27;;;;;;;7.31;nan;100610.25;4988596;28;20484;-81
2022/03/01 10:59:24;;;;;;;13.27;9.52;;;;;;;7.33;nan;100597.16;4986777;28;20298;-78
2022/03/01 11:01:51;;;;;;;9.95;9.05;;;;;;;7.44;nan;100594.16;4985083;28;20550;-77
2022/03/01 11:04:16;;;;;;;12.48;9.98;;;;;;;7.37;nan;100593.53;4985332;28;20206;-81
2022/03/01 11:06:42;;;;;;;12.60;9.57;;;;;;;7.28;nan;100599.06;4986626;28;20219;-78
2022/03/01 11:09:10;;;;;;;19.20;10.18;;;;;;;7.17;nan;100596.81;4985669;28;20227;-77
2022/03/01 11:11:38;;;;;;;11.30;8.05;;;;;;;7.21;nan;100590.59;4987451;28;20251;-78
2022/03/01 11:14:04;;;;;;;14.20;8.90;;;;;;;7.37;nan;100582.19;4988040;28;20205;-80
2022/03/01 11:16:47;;;;;;;16.17;9.35;;;;;;;7.44;nan;100583.72;4974204;28;20576;-78
2022/03/01 11:19:28;;;;;;;11.02;6.93;;;;;;;7.45;nan;100581.06;4987420;28;20222;-77
2022/03/01 11:21:54;;;;;;;11.43;7.55;;;;;;;7.51;nan;100570.38;4988630;28;20203;-76
2022/03/01 11:24:21;;;;;;;10.00;7.60;;;;;;;7.56;nan;100580.69;4985102;28;20223;-80
2022/03/01 11:26:47;;;;;;;11.88;8.20;;;;;;;7.61;nan;100578.72;4993203;28;20273;-78
2022/03/01 11:29:16;;;;;;;22.50;10.13;;;;;;;7.64;nan;100576.03;4992882;28;20623;-80
2022/03/01 11:31:43;;;;;;;12.10;9.35;;;;;;;7.64;nan;100567.28;4981598;28;20834;-80